Time;durP1;ratioP1;P1;durP2;ratioP2;P2;SDS_P1;SDS_P2;PMS_P1;PMS_P2;Temp;Humidity;BMP_temperature;BMP_pressure;BME280_temperature;BME280_humidity;BME280_pressure;Samples;Min_cycle;Max_cycle;Signal;HPM_P1;HPM_P2
2023/08/15 00:02:22;;;;;;;5.90;3.30;;;;;;;27.80;45.49;100447.78;10495069;28;20412;-76
2023/08/15 00:07:23;;;;;;;8.57;3.40;;;;;;;27.79;45.88;100452.41;10495571;28;20044;-76
2023/08/15 00:12:24;;;;;;;8.05;3.70;;;;;;;27.79;45.70;100466.06;10500714;28;20137;-76
2023/08/15 00:17:25;;;;;;;10.05;3.72;;;;;;;27.19;45.81;100375.97;10503268;28;20047;-76
2023/08/15 00:22:25;;;;;;;5.53;3.60;;;;;;;27.46;46.22;100427.41;10503713;28;20047;-76
2023/08/15 00:27:26;;;;;;;8.80;3.75;;;;;;;27.62;46.28;100463.63;10503675;28;20380;-78
2023/08/15 00:32:27;;;;;;;5.57;3.22;;;;;;;27.57;46.15;100460.09;10503561;28;20045;-76
2023/08/15 00:37:28;;;;;;;8.25;3.67;;;;;;;27.50;46.53;100460.41;10503140;28;20127;-77
2023/08/15 00:42:29;;;;;;;9.00;3.03;;;;;;;27.21;46.71;100428.28;10502230;28;20040;-76
2023/08/15 00:47:30;;;;;;;13.45;3.28;;;;;;;27.28;47.00;100447.94;10501312;28;20058;-77
2023/08/15 00:52:31;;;;;;;5.03;3.03;;;;;;;27.23;47.41;100456.13;10502935;28;20135;-76
2023/08/15 00:57:32;;;;;;;10.43;3.50;;;;;;;26.81;47.94;100402.72;10501461;28;20093;-76
2023/08/15 01:02:33;;;;;;;10.45;3.70;;;;;;;26.99;48.11;100450.41;10502169;28;20492;-76
2023/08/15 01:07:35;;;;;;;9.15;3.47;;;;;;;26.86;48.84;100446.34;10501869;28;20032;-76
2023/08/15 01:12:41;;;;;;;15.07;3.72;;;;;;;26.44;49.85;100394.78;10502082;28;20067;-76
2023/08/15 01:18:05;;;;;;;6.90;2.97;;;;;;;26.86;49.67;100470.88;10501575;28;20044;-76
2023/08/15 01:23:07;;;;;;;8.63;3.42;;;;;;;26.02;49.58;100349.56;10502809;28;20048;-76
2023/08/15 01:28:12;;;;;;;15.23;3.88;;;;;;;26.76;49.88;100470.03;10501114;28;20044;-76
2023/08/15 01:33:21;;;;;;;6.15;3.70;;;;;;;26.58;49.41;100438.69;10500785;28;20048;-76
2023/08/15 01:39:03;;;;;;;9.80;3.33;;;;;;;26.76;49.32;100472.75;10500797;28;20123;-76
2023/08/15 01:44:04;;;;;;;19.65;3.97;;;;;;;26.57;49.38;100464.31;10521111;28;20512;-76
2023/08/15 01:49:05;;;;;;;12.73;4.35;;;;;;;26.44;49.16;100451.19;10499608;28;20072;-76
2023/08/15 01:54:05;;;;;;;48.85;5.35;;;;;;;26.11;49.75;100402.38;10498607;28;20095;-75
2023/08/15 01:59:06;;;;;;;17.52;4.13;;;;;;;26.44;49.96;100478.41;10488518;28;20044;-76
2023/08/15 02:04:07;;;;;;;38.08;5.32;;;;;;;25.92;51.30;100423.03;10499932;28;20055;-76
2023/08/15 02:09:08;;;;;;;7.18;3.20;;;;;;;26.26;51.49;100496.91;10471578;28;20127;-76
2023/08/15 02:14:09;;;;;;;8.75;3.22;;;;;;;26.13;52.58;100497.41;10458333;28;20139;-76
2023/08/15 02:19:09;;;;;;;6.57;3.60;;;;;;;25.58;53.26;100438.97;10457645;28;20136;-76
2023/08/15 02:24:10;;;;;;;6.47;3.40;;;;;;;25.86;54.31;100498.41;10457961;28;20124;-76
2023/08/15 02:29:13;;;;;;;10.57;3.38;;;;;;;25.33;54.11;100437.72;10456669;28;20567;-76
2023/08/15 02:34:18;;;;;;;50.40;5.87;;;;;;;25.77;56.19;100520.94;10455237;28;20044;-76
2023/08/15 02:39:18;;;;;;;21.50;4.00;;;;;;;25.76;54.84;100520.13;10455683;28;20065;-74
2023/08/15 02:44:19;;;;;;;16.30;3.65;;;;;;;25.56;54.43;100498.25;10456596;28;20527;-75
2023/08/15 02:49:20;;;;;;;7.05;3.20;;;;;;;25.14;54.65;100433.81;10456009;28;20041;-74
2023/08/15 02:54:20;;;;;;;8.90;3.85;;;;;;;25.80;54.38;100532.09;10455694;28;20049;-75
2023/08/15 02:59:21;;;;;;;11.60;3.60;;;;;;;25.72;54.11;100494.50;10455996;28;20033;-75
2023/08/15 03:04:22;;;;;;;15.10;3.95;;;;;;;25.78;53.93;100484.47;10455657;28;20047;-75
2023/08/15 03:09:23;;;;;;;26.35;4.68;;;;;;;26.18;53.07;100457.41;10456597;28;20048;-75
2023/08/15 03:14:23;;;;;;;75.88;6.78;;;;;;;27.51;52.07;100516.59;10455013;28;20045;-75
2023/08/15 03:19:24;;;;;;;11.90;3.63;;;;;;;28.31;49.95;100530.25;10454295;28;20041;-74
2023/08/15 03:24:28;;;;;;;6.53;3.22;;;;;;;28.94;47.87;100542.44;10454828;28;20052;-75
2023/08/15 03:29:28;;;;;;;9.10;3.72;;;;;;;29.15;47.70;100530.25;10455654;28;20033;-75
2023/08/15 03:34:29;;;;;;;6.32;3.10;;;;;;;29.21;46.65;100503.66;10454845;28;20044;-75
2023/08/15 03:39:30;;;;;;;8.90;3.10;;;;;;;29.47;46.80;100567.16;10454912;28;20124;-75
2023/08/15 03:44:31;;;;;;;11.07;3.33;;;;;;;28.92;47.00;100529.03;10453751;28;20051;-75
2023/08/15 03:49:31;;;;;;;9.95;3.20;;;;;;;29.20;46.32;100564.97;10462911;28;20055;-79
2023/08/15 03:54:32;;;;;;;8.27;3.40;;;;;;;28.47;46.87;100517.31;10458506;28;20037;-74
2023/08/15 03:59:33;;;;;;;16.73;3.58;;;;;;;28.77;47.52;100592.03;10453828;28;20041;-75
2023/08/15 04:04:34;;;;;;;19.02;4.43;;;;;;;28.63;48.22;100598.13;10454257;28;20451;-74
2023/08/15 04:09:34;;;;;;;23.83;4.47;;;;;;;28.57;48.51;100593.81;10454001;28;20454;-74
2023/08/15 04:14:35;;;;;;;8.35;3.80;;;;;;;28.61;47.86;100594.06;10454072;28;20057;-74
2023/08/15 04:19:36;;;;;;;13.02;4.10;;;;;;;28.39;47.45;100546.06;10464926;28;20140;-69
2023/08/15 04:24:37;;;;;;;11.23;3.75;;;;;;;28.79;47.36;100607.06;10460602;28;20028;-70
2023/08/15 04:29:38;;;;;;;14.90;4.10;;;;;;;28.71;46.72;100579.50;10465554;28;20066;-70
2023/08/15 04:34:39;;;;;;;11.77;3.85;;;;;;;28.73;45.84;100547.25;10453486;28;20049;-69
2023/08/15 04:39:39;;;;;;;11.88;4.28;;;;;;;29.93;43.69;100610.50;10452693;28;20483;-70
2023/08/15 04:44:40;;;;;;;10.05;3.47;;;;;;;30.55;42.64;100616.91;10453231;28;20071;-71
2023/08/15 04:49:42;;;;;;;11.65;3.90;;;;;;;30.84;41.63;100604.97;10452458;28;20061;-71
2023/08/15 04:54:43;;;;;;;6.43;3.20;;;;;;;31.42;39.96;100590.09;10473126;28;20048;-69
2023/08/15 04:59:43;;;;;;;8.27;3.58;;;;;;;30.88;40.06;100553.91;10502072;28;20036;-70
2023/08/15 05:04:44;;;;;;;10.45;3.55;;;;;;;31.14;39.35;100551.56;10501608;28;20040;-70
2023/08/15 05:09:46;;;;;;;12.55;3.70;;;;;;;31.97;39.30;100620.41;10501842;28;20063;-70
2023/08/15 05:14:47;;;;;;;13.53;3.90;;;;;;;31.88;38.57;100614.75;10501934;28;20036;-70
2023/08/15 05:19:48;;;;;;;17.52;3.83;;;;;;;31.42;39.04;100625.78;10501827;28;20045;-70
2023/08/15 05:24:48;;;;;;;10.35;3.70;;;;;;;30.81;39.95;100606.41;10501994;28;20144;-70
2023/08/15 05:29:49;;;;;;;22.23;4.40;;;;;;;30.57;41.00;100605.63;10500906;28;20131;-70
2023/08/15 05:34:50;;;;;;;8.82;3.45;;;;;;;30.10;40.43;100547.03;10500976;28;20052;-70
2023/08/15 05:39:51;;;;;;;13.38;3.47;;;;;;;31.22;39.37;100611.25;10500516;28;20037;-69
2023/08/15 05:44:51;;;;;;;13.80;3.60;;;;;;;31.53;38.92;100614.31;10501183;28;20047;-70
2023/08/15 05:49:52;;;;;;;23.38;4.32;;;;;;;31.45;39.49;100589.50;10499839;28;20064;-70
2023/08/15 05:54:53;;;;;;;9.80;4.13;;;;;;;31.78;39.25;100631.44;10500201;28;20044;-70
2023/08/15 05:59:54;;;;;;;13.15;4.20;;;;;;;31.81;38.97;100630.84;10500060;28;20516;-70
2023/08/15 06:04:54;;;;;;;15.30;4.13;;;;;;;31.93;38.94;100581.72;10499121;28;20044;-70
2023/08/15 06:09:55;;;;;;;14.07;4.20;;;;;;;31.93;38.70;100578.19;10497175;28;20416;-70
2023/08/15 06:14:56;;;;;;;12.23;4.50;;;;;;;32.50;37.91;100617.94;10498813;28;20044;-70
2023/08/15 06:19:57;;;;;;;8.45;3.92;;;;;;;32.73;37.20;100632.56;10499459;28;20078;-70
2023/08/15 06:24:57;;;;;;;15.75;4.50;;;;;;;32.78;37.32;100611.56;10499432;28;20471;-69
2023/08/15 06:29:58;;;;;;;8.68;3.85;;;;;;;32.66;37.63;100632.16;10498766;28;20040;-70
2023/08/15 06:35:01;;;;;;;9.73;3.58;;;;;;;32.87;37.57;100640.75;10497976;28;20404;-69
2023/08/15 06:40:03;;;;;;;9.20;3.63;;;;;;;32.93;36.60;100591.94;10498255;28;20028;-70
2023/08/15 06:45:07;;;;;;;10.88;4.38;;;;;;;33.48;36.66;100630.25;10498562;28;20048;-70
2023/08/15 06:50:08;;;;;;;22.02;4.63;;;;;;;33.86;36.62;100640.81;10497865;28;20044;-70
2023/08/15 09:51:17;;;;;;;10.60;4.47;;;;;;;34.30;34.01;100435.00;10464294;28;20404;-69
2023/08/15 09:56:18;;;;;;;14.00;4.82;;;;;;;34.66;34.99;100502.81;10427335;28;20045;-72
2023/08/15 10:01:23;;;;;;;9.52;4.32;;;;;;;34.81;33.67;100499.56;10441532;28;20037;-69
2023/08/15 10:08:15;;;;;;;16.55;4.63;;;;;;;35.26;33.26;100492.81;10572891;27;20486;-69
2023/08/15 10:13:19;;;;;;;31.77;4.97;;;;;;;34.73;33.55;100436.91;10573894;28;20043;-70
2023/08/15 10:18:20;;;;;;;17.88;4.50;;;;;;;34.98;32.81;100473.88;10573668;28;20036;-70
2023/08/15 10:23:26;;;;;;;9.82;4.20;;;;;;;35.16;32.14;100471.91;10573528;28;20054;-70
2023/08/15 10:28:29;;;;;;;23.23;4.53;;;;;;;36.01;31.33;100484.78;10574280;28;20031;-70
2023/08/15 10:33:31;;;;;;;16.42;4.85;;;;;;;35.94;30.79;100456.88;10572935;28;20127;-70
2023/08/15 10:38:39;;;;;;;13.25;4.70;;;;;;;36.05;31.14;100483.81;10573402;28;20047;-70
2023/08/15 10:43:44;;;;;;;20.60;6.38;;;;;;;35.57;30.81;100424.28;10573190;28;20043;-71
2023/08/15 10:48:49;;;;;;;7.88;4.70;;;;;;;36.03;30.51;100480.56;10573014;28;20036;-71
2023/08/15 10:53:52;;;;;;;16.88;5.10;;;;;;;36.43;30.08;100460.72;10572392;28;20414;-71
2023/08/15 10:58:53;;;;;;;17.08;4.30;;;;;;;36.22;29.38;100437.81;10572814;28;20075;-71
2023/08/15 11:03:56;;;;;;;36.57;6.43;;;;;;;36.40;30.18;100458.63;10571743;28;20078;-72
2023/08/15 11:08:58;;;;;;;13.85;4.00;;;;;;;36.61;29.36;100455.03;10571573;28;20071;-71
2023/08/15 11:13:59;;;;;;;13.35;4.13;;;;;;;36.47;29.06;100394.47;10544030;28;20044;-70
2023/08/15 11:19:00;;;;;;;8.52;3.90;;;;;;;36.97;29.31;100437.72;10504674;28;20040;-72
2023/08/15 11:24:01;;;;;;;10.60;4.77;;;;;;;36.91;28.77;100428.81;10501457;28;20040;-71
2023/08/15 11:29:02;;;;;;;12.80;4.67;;;;;;;36.82;28.66;100436.41;10501514;28;20043;-71
2023/08/15 11:34:04;;;;;;;11.43;4.22;;;;;;;36.53;29.65;100442.94;10474783;28;20500;-72
2023/08/15 11:39:05;;;;;;;18.08;4.65;;;;;;;36.43;29.51;100430.28;10459822;28;20095;-72
2023/08/15 11:44:06;;;;;;;15.10;4.33;;;;;;;36.42;29.71;100427.88;10459733;28;20064;-71
2023/08/15 11:49:14;;;;;;;6.65;3.55;;;;;;;36.49;28.73;100417.03;10458774;28;20037;-71
2023/08/15 11:54:15;;;;;;;10.98;3.90;;;;;;;35.92;28.88;100370.69;10462983;28;20044;-71
2023/08/15 11:59:20;;;;;;;9.13;4.20;;;;;;;36.11;29.39;100398.72;10475311;28;20041;-71
2023/08/15 12:04:20;;;;;;;17.80;4.35;;;;;;;35.57;29.52;100315.69;10458701;28;20060;-72
2023/08/15 12:09:21;;;;;;;15.02;4.07;;;;;;;36.02;29.49;100395.16;10459519;28;20127;-72
2023/08/15 12:14:22;;;;;;;21.77;4.60;;;;;;;36.22;29.18;100394.34;10458153;28;20642;-71
2023/08/15 12:19:23;;;;;;;20.67;4.22;;;;;;;36.72;29.49;100392.59;10457577;28;20416;-71
2023/08/15 12:24:24;;;;;;;17.70;4.43;;;;;;;36.52;29.09;100333.38;10465570;28;20024;-71
2023/08/15 12:29:24;;;;;;;10.47;4.03;;;;;;;36.69;28.78;100393.28;10463302;28;20102;-71
2023/08/15 12:34:25;;;;;;;13.57;4.80;;;;;;;36.60;28.90;100382.28;10470676;28;20036;-72
2023/08/15 12:39:26;;;;;;;15.87;4.20;;;;;;;36.37;29.00;100334.81;10465246;28;20040;-71
2023/08/15 12:44:27;;;;;;;13.53;4.20;;;;;;;36.64;28.95;100351.97;10459297;28;20407;-71
2023/08/15 12:49:27;;;;;;;7.47;3.83;;;;;;;36.32;28.38;100341.41;10494202;28;20060;-70
2023/08/15 12:54:28;;;;;;;8.35;3.78;;;;;;;36.36;29.04;100369.19;10474259;28;20534;-72
2023/08/15 12:59:29;;;;;;;13.65;4.30;;;;;;;36.47;28.77;100372.34;10486400;28;20048;-71
2023/08/15 13:04:30;;;;;;;20.10;4.47;;;;;;;36.59;28.73;100371.56;10496266;28;20061;-71
2023/08/15 13:09:31;;;;;;;11.90;4.07;;;;;;;36.39;28.46;100376.00;10468515;28;20048;-71
2023/08/15 13:14:32;;;;;;;16.93;4.53;;;;;;;36.01;28.59;100360.38;10466213;28;20408;-72
2023/08/15 13:19:33;;;;;;;10.05;4.45;;;;;;;35.77;28.87;100370.16;10467349;28;20037;-71
2023/08/15 13:24:33;;;;;;;14.93;4.47;;;;;;;35.36;29.12;100338.59;10455022;28;20499;-72
2023/08/15 13:29:34;;;;;;;39.50;7.13;;;;;;;34.95;29.62;100290.41;10469043;28;20127;-73
2023/08/15 13:34:35;;;;;;;13.90;6.05;;;;;;;35.34;29.35;100371.25;10471186;28;20127;-72
2023/08/15 13:39:36;;;;;;;21.08;6.65;;;;;;;35.22;29.43;100343.56;10480710;28;20407;-71
2023/08/15 13:44:39;;;;;;;20.30;5.43;;;;;;;35.38;29.58;100338.25;10483251;28;20045;-74
2023/08/15 13:49:39;;;;;;;12.45;4.78;;;;;;;35.10;29.35;100300.09;10474264;28;20513;-73
2023/08/15 13:54:40;;;;;;;18.85;5.18;;;;;;;35.58;29.02;100336.69;10455702;28;20579;-74
2023/08/15 13:59:41;;;;;;;46.33;7.65;;;;;;;35.58;28.46;100334.72;10476220;28;20571;-76
2023/08/15 14:04:42;;;;;;;25.63;5.38;;;;;;;35.54;28.86;100349.50;10477835;28;20052;-76
2023/08/15 14:09:42;;;;;;;18.52;4.20;;;;;;;35.16;28.75;100333.84;10476674;28;20502;-75
2023/08/15 14:14:43;;;;;;;48.22;11.40;;;;;;;35.05;28.89;100336.16;10454477;28;20049;-75
2023/08/15 14:19:44;;;;;;;84.43;21.50;;;;;;;34.76;29.17;100325.88;10483907;28;20133;-76
2023/08/15 14:24:48;;;;;;;41.60;10.65;;;;;;;34.82;29.50;100357.66;10494871;28;20045;-76
2023/08/15 14:29:50;;;;;;;23.30;5.90;;;;;;;34.37;29.80;100291.91;10495253;28;20048;-75
2023/08/15 14:34:51;;;;;;;21.52;4.10;;;;;;;34.05;30.00;100280.34;10459816;28;20041;-76
2023/08/15 14:39:51;;;;;;;6.75;3.22;;;;;;;34.40;30.20;100349.16;10454816;28;20049;-73
2023/08/15 14:44:52;;;;;;;12.13;4.40;;;;;;;34.33;30.66;100356.34;10453510;28;20049;-75
2023/08/15 14:49:53;;;;;;;31.48;5.65;;;;;;;34.12;30.95;100345.19;10452963;28;20040;-75
2023/08/15 14:54:55;;;;;;;18.08;4.03;;;;;;;33.64;30.68;100292.66;10469084;28;20070;-73
2023/08/15 14:59:55;;;;;;;18.23;4.27;;;;;;;33.86;30.84;100340.44;10464596;28;20135;-74
2023/08/15 15:04:56;;;;;;;15.95;3.75;;;;;;;33.69;31.44;100343.22;10460813;28;20060;-73
2023/08/15 15:09:57;;;;;;;38.40;4.95;;;;;;;33.21;31.60;100303.63;10460259;28;20127;-73
2023/08/15 15:14:58;;;;;;;28.38;4.22;;;;;;;32.74;31.19;100264.75;10461387;28;20111;-73
2023/08/15 15:19:59;;;;;;;34.75;5.32;;;;;;;33.21;32.32;100366.09;10460682;28;20057;-73
2023/08/15 15:25:00;;;;;;;76.80;7.90;;;;;;;33.13;32.82;100367.69;10460098;28;20048;-73
2023/08/15 15:30:01;;;;;;;16.65;3.63;;;;;;;32.80;32.56;100337.75;10459619;28;20033;-73
2023/08/15 15:35:02;;;;;;;84.50;9.07;;;;;;;32.84;33.35;100359.94;10459847;28;20037;-73
2023/08/15 15:40:04;;;;;;;25.73;4.43;;;;;;;32.55;32.84;100332.94;10460017;28;20037;-73
2023/08/15 15:45:06;;;;;;;37.20;6.00;;;;;;;32.63;33.72;100374.25;10459960;28;20041;-73
2023/08/15 15:50:07;;;;;;;85.90;9.60;;;;;;;32.15;34.44;100319.91;10459373;28;20069;-73
2023/08/15 15:55:08;;;;;;;18.33;4.57;;;;;;;32.41;33.78;100377.81;10459083;28;20542;-73
2023/08/15 16:00:12;;;;;;;34.65;6.22;;;;;;;32.22;34.42;100367.03;10456911;28;20045;-73
2023/08/15 16:05:13;;;;;;;30.40;4.63;;;;;;;32.18;33.95;100387.19;10458624;28;20067;-73
2023/08/15 16:10:14;;;;;;;13.38;4.03;;;;;;;32.00;34.44;100378.00;10458455;28;20056;-73
2023/08/15 16:15:15;;;;;;;30.40;5.78;;;;;;;31.91;35.09;100383.41;10458373;28;20041;-72
2023/08/15 16:20:16;;;;;;;53.30;7.82;;;;;;;31.42;36.00;100343.03;10458165;28;20041;-72
2023/08/15 16:25:16;;;;;;;39.70;7.53;;;;;;;31.37;36.11;100352.97;10458661;28;20041;-73
2023/08/15 16:30:17;;;;;;;25.33;6.32;;;;;;;31.42;36.16;100381.47;10457654;28;20045;-72
2023/08/15 16:35:18;;;;;;;40.53;6.65;;;;;;;31.37;36.47;100405.13;10457902;28;20041;-73
2023/08/15 16:40:19;;;;;;;27.65;7.15;;;;;;;31.05;36.58;100389.56;10457662;28;20051;-73
2023/08/15 16:45:20;;;;;;;38.60;9.43;;;;;;;30.67;37.19;100364.19;10456376;28;20040;-74
2023/08/15 16:50:20;;;;;;;60.00;8.48;;;;;;;30.36;37.71;100345.53;10457523;28;20090;-73
2023/08/15 16:55:21;;;;;;;34.28;6.50;;;;;;;30.13;39.47;100355.50;10456359;28;20075;-72
2023/08/15 17:00:22;;;;;;;29.45;5.75;;;;;;;30.20;40.02;100418.13;10457850;28;20135;-72
2023/08/15 17:05:23;;;;;;;17.27;4.13;;;;;;;30.00;40.06;100424.69;10472571;28;20139;-74
2023/08/15 17:10:24;;;;;;;20.60;4.47;;;;;;;29.54;40.36;100368.63;10455349;28;20037;-73
2023/08/15 17:15:26;;;;;;;23.42;5.03;;;;;;;29.47;41.95;100414.72;10478335;28;20049;-73
2023/08/15 17:20:26;;;;;;;25.77;5.53;;;;;;;29.00;42.60;100383.47;10470716;28;20040;-73
2023/08/15 17:25:27;;;;;;;30.80;6.65;;;;;;;29.08;42.91;100415.69;10482465;28;20040;-74
2023/08/15 17:30:28;;;;;;;41.22;13.60;;;;;;;28.92;43.10;100425.13;10473995;28;20048;-73
2023/08/15 17:35:29;;;;;;;34.67;11.05;;;;;;;28.57;42.78;100368.84;10479592;28;20052;-74
2023/08/15 17:40:32;;;;;;;40.42;14.25;;;;;;;28.57;42.94;100388.00;10475684;28;20048;-74
2023/08/15 17:45:32;;;;;;;;;;;;;;;29.00;42.04;100434.63;10479663;28;20044;-74
2023/08/15 17:50:33;;;;;;;31.30;9.15;;;;;;;28.35;43.09;100386.50;10483305;28;19920;-74
2023/08/15 17:55:34;;;;;;;35.97;9.93;;;;;;;28.56;43.83;100417.25;10472707;28;20147;-73
2023/08/15 18:00:35;;;;;;;18.13;5.63;;;;;;;28.66;43.65;100417.16;10472846;28;20040;-73
2023/08/15 18:05:36;;;;;;;24.92;6.75;;;;;;;28.63;44.02;100425.94;10470196;28;20423;-73
2023/08/15 18:10:37;;;;;;;28.45;8.00;;;;;;;28.38;44.86;100416.00;10472170;28;20047;-74
2023/08/15 18:15:38;;;;;;;24.15;7.20;;;;;;;28.27;45.50;100419.06;10472667;28;20048;-72
2023/08/15 18:20:38;;;;;;;26.38;6.57;;;;;;;28.31;45.68;100429.16;10475313;28;20059;-73
2023/08/15 18:25:39;;;;;;;29.67;7.80;;;;;;;28.18;46.70;100413.41;10485590;28;20051;-73
2023/08/15 18:30:41;;;;;;;29.15;7.60;;;;;;;28.09;47.89;100424.13;10503657;28;20041;-73
2023/08/15 18:35:42;;;;;;;23.13;8.77;;;;;;;27.95;48.03;100402.09;10503564;28;20056;-73
2023/08/15 18:40:43;;;;;;;19.63;7.35;;;;;;;27.89;48.05;100402.41;10503043;28;20514;-73
2023/08/15 18:45:44;;;;;;;23.63;7.18;;;;;;;27.79;47.43;100386.91;10500770;28;20044;-73
2023/08/15 18:50:46;;;;;;;18.63;6.75;;;;;;;28.21;44.80;100430.06;10485169;28;20489;-73
2023/08/15 18:55:47;;;;;;;30.23;6.97;;;;;;;28.30;44.73;100427.53;10469725;28;20044;-73
2023/08/15 19:00:48;;;;;;;30.67;6.13;;;;;;;28.30;44.48;100416.63;10466293;28;20056;-73
2023/08/15 19:05:49;;;;;;;19.15;5.53;;;;;;;28.40;42.05;100413.78;10463598;28;20068;-73
2023/08/15 19:10:50;;;;;;;21.83;5.50;;;;;;;28.49;41.70;100424.97;10462194;28;20128;-73
2023/08/15 19:15:51;;;;;;;82.03;9.10;;;;;;;28.32;41.44;100416.31;10480228;28;20143;-73
2023/08/15 19:20:52;;;;;;;46.78;10.00;;;;;;;27.89;43.16;100386.03;10501686;28;20067;-73
2023/08/15 19:25:53;;;;;;;37.22;6.38;;;;;;;27.56;43.74;100398.44;10501184;28;20423;-74
2023/08/15 19:30:54;;;;;;;13.93;4.88;;;;;;;27.59;42.84;100430.63;10501389;28;20032;-74
2023/08/15 19:35:54;;;;;;;28.05;5.60;;;;;;;27.14;43.04;100375.13;10500439;28;20086;-74
2023/08/15 19:40:55;;;;;;;21.83;5.07;;;;;;;27.22;43.96;100420.91;10500892;28;20450;-74
2023/08/15 19:45:56;;;;;;;30.77;5.18;;;;;;;27.16;44.51;100428.28;10500653;28;20093;-74
2023/08/15 19:50:57;;;;;;;20.38;4.45;;;;;;;26.23;45.97;100314.19;10473957;28;20558;-74
2023/08/15 19:55:58;;;;;;;25.42;4.35;;;;;;;26.74;46.33;100421.25;10494947;28;20041;-74
2023/08/15 20:00:59;;;;;;;19.02;4.25;;;;;;;26.54;47.66;100443.88;10500614;28;20052;-74
2023/08/15 20:05:59;;;;;;;27.30;4.13;;;;;;;26.26;48.02;100437.00;10485814;28;20115;-73
2023/08/15 20:11:00;;;;;;;16.88;3.97;;;;;;;25.85;48.23;100382.50;10458597;28;20052;-74
2023/08/15 20:16:01;;;;;;;16.35;4.30;;;;;;;26.12;47.89;100425.00;10457552;28;20037;-74
2023/08/15 20:21:02;;;;;;;18.30;4.15;;;;;;;26.15;48.07;100449.78;10458815;28;20571;-74
2023/08/15 20:26:03;;;;;;;20.60;4.25;;;;;;;25.42;49.35;100359.19;10459763;28;20546;-74
2023/08/15 20:31:04;;;;;;;18.60;5.05;;;;;;;25.55;49.87;100420.41;10465941;28;20049;-74
2023/08/15 20:36:05;;;;;;;10.40;4.68;;;;;;;25.24;50.47;100377.59;10456937;28;20048;-74
2023/08/15 20:41:06;;;;;;;29.23;5.32;;;;;;;25.22;51.58;100398.00;10456645;28;20393;-74
2023/08/15 20:46:07;;;;;;;26.25;5.53;;;;;;;24.78;51.78;100358.28;10457430;28;20045;-73
2023/08/15 20:51:08;;;;;;;13.30;4.82;;;;;;;25.02;51.52;100412.25;10456552;28;20045;-74
2023/08/15 20:56:10;;;;;;;27.17;5.68;;;;;;;25.25;50.77;100449.13;10456268;28;20744;-74
2023/08/15 21:01:10;;;;;;;21.50;5.60;;;;;;;25.22;51.57;100445.03;10456345;28;20029;-74
2023/08/15 21:06:11;;;;;;;16.73;5.13;;;;;;;24.70;50.94;100369.63;10456775;28;20139;-74
2023/08/15 21:11:12;;;;;;;51.42;5.65;;;;;;;25.12;51.89;100444.09;10456242;28;20063;-74
2023/08/15 21:16:13;;;;;;;23.77;4.75;;;;;;;25.08;52.42;100448.44;10456397;28;20049;-74
2023/08/15 21:21:14;;;;;;;44.42;5.45;;;;;;;24.87;53.36;100415.69;10454993;28;20036;-74
2023/08/15 21:26:15;;;;;;;22.20;4.65;;;;;;;24.73;53.12;100400.91;10455431;28;20041;-74
2023/08/15 21:31:15;;;;;;;16.17;4.18;;;;;;;25.00;53.04;100436.94;10454722;28;20056;-74
2023/08/15 21:36:16;;;;;;;17.95;4.47;;;;;;;24.47;51.99;100367.28;10454640;28;20040;-74
2023/08/15 21:41:17;;;;;;;26.10;4.13;;;;;;;24.77;52.28;100413.72;10454477;28;20051;-74
2023/08/15 21:46:18;;;;;;;31.48;3.78;;;;;;;24.65;52.67;100401.38;10454820;28;20052;-74
2023/08/15 21:51:18;;;;;;;32.55;4.93;;;;;;;24.54;52.14;100374.16;10454111;28;20157;-74
2023/08/15 21:56:19;;;;;;;28.33;3.63;;;;;;;24.47;51.84;100354.56;10453620;28;20037;-74
2023/08/15 22:01:20;;;;;;;18.38;3.33;;;;;;;24.37;51.61;100317.22;10453794;28;20045;-74
2023/08/15 22:06:21;;;;;;;26.27;3.53;;;;;;;24.72;51.83;100358.53;10454568;28;20147;-75
2023/08/15 22:11:21;;;;;;;19.80;4.00;;;;;;;25.27;51.38;100430.63;10454733;28;20068;-74
2023/08/15 22:16:22;;;;;;;13.00;2.83;;;;;;;25.33;50.42;100439.63;10453664;28;20037;-74
2023/08/15 22:21:23;;;;;;;18.60;3.30;;;;;;;25.18;50.39;100405.03;10454153;28;20623;-74
2023/08/15 22:26:23;;;;;;;16.70;2.97;;;;;;;25.22;50.79;100430.63;10454235;28;20493;-74
2023/08/15 22:31:24;;;;;;;20.92;2.95;;;;;;;25.23;51.20;100438.50;10453578;28;20052;-74
2023/08/15 22:36:25;;;;;;;18.77;2.78;;;;;;;25.20;52.27;100446.38;10453333;28;20037;-74
2023/08/15 22:41:26;;;;;;;17.27;3.08;;;;;;;24.96;51.95;100408.66;10453043;28;20037;-74
2023/08/15 22:46:26;;;;;;;10.15;3.20;;;;;;;25.00;52.34;100430.69;10453846;28;20070;-74
2023/08/15 22:51:27;;;;;;;16.30;3.10;;;;;;;24.68;52.20;100406.28;10453235;28;20451;-74
2023/08/15 22:56:28;;;;;;;17.10;3.30;;;;;;;24.90;52.87;100453.19;10452803;28;20041;-74
2023/08/15 23:01:29;;;;;;;13.60;2.72;;;;;;;24.91;52.10;100446.66;10454013;28;20041;-74
2023/08/15 23:06:30;;;;;;;21.80;3.08;;;;;;;24.87;51.50;100431.16;10452742;28;20053;-74
2023/08/15 23:11:33;;;;;;;11.63;2.10;;;;;;;24.19;52.34;100311.38;10454334;28;20139;-74
2023/08/15 23:16:34;;;;;;;;;;;;;;;25.22;51.80;100436.06;10461015;28;20044;-74
2023/08/15 23:21:34;;;;;;;9.68;2.25;;;;;;;25.04;51.84;100421.78;10459919;28;19917;-74
2023/08/15 23:26:35;;;;;;;12.43;2.17;;;;;;;25.12;52.29;100428.59;10460373;28;20037;-74
2023/08/15 23:31:36;;;;;;;15.75;2.33;;;;;;;25.00;52.87;100419.81;10460562;28;20049;-75
2023/08/15 23:36:38;;;;;;;16.70;2.55;;;;;;;24.57;52.96;100361.94;10459726;28;20041;-74
2023/08/15 23:41:39;;;;;;;7.88;1.88;;;;;;;24.92;53.07;100423.03;10459612;28;20094;-74
2023/08/15 23:46:39;;;;;;;11.98;2.25;;;;;;;24.92;52.83;100434.75;10469319;28;20047;-74
2023/08/15 23:51:40;;;;;;;6.10;1.98;;;;;;;24.46;53.79;100363.75;10459560;28;20040;-75
2023/08/15 23:56:41;;;;;;;12.05;2.63;;;;;;;24.63;53.74;100401.66;10459843;28;20043;-74
